Flight Track Log - Related Links

Times and Time Zones

All times are in EDT time to prevent confusion due to time zone crossing. See the SWA868 flight status page for this flight to view local times or setup timezone preferences in your user account.

Time Position Orientation Groundspeed Altitude Reporting Facility
EDT Latitude Longitude Course Direction KTS MPH feet Rate Location/Type
Thu 09:11:48 PM 28.0000 -82.5333 360° North 139 160 800  Level Tampa TRACON
Thu 09:12:18 PM 28.0167 -82.5333 360° North 154 177 1,600 2,067 Climbing Tampa TRACON
Thu 09:13:18 PM 28.0667 -82.5333 360° North 223 257 3,900 3,098 Climbing Tampa TRACON
Thu 09:14:51 PM 28.1808 -82.5489 353° North 299 344 9,500 3,117 Climbing Jacksonville Center
Thu 09:15:52 PM 28.2664 -82.5625 352° North 293 337 11,900 2,876 Climbing Jacksonville Center
Thu 09:16:52 PM 28.3667 -82.5836 350° North 317 365 15,300 2,924 Climbing Jacksonville Center
Thu 09:17:51 PM 28.4689 -82.5856 359° North 344 396 17,700 2,350 Climbing Jacksonville Center
Thu 09:18:52 PM 28.5817 -82.5875 359° North 369 425 20,000 2,200 Climbing Jacksonville Center
Thu 09:19:51 PM 28.6733 -82.5897 359° North 392 451 22,100 2,622 Climbing Jacksonville Center
Thu 09:20:51 PM 28.7986 -82.6083 353° North 402 463 25,200 2,479 Climbing Jacksonville Center
Thu 09:21:52 PM 28.9156 -82.6222 354° North 409 471 27,100 1,934 Climbing Jacksonville Center
Thu 09:22:52 PM 29.0344 -82.6408 352° North 419 482 29,100 2,100 Climbing Jacksonville Center
Thu 09:23:52 PM 29.1556 -82.6572 353° North 426 490 31,300 2,200 Climbing Jacksonville Center
Thu 09:24:52 PM 29.2725 -82.6736 353° North 426 490 33,500 1,361 Climbing Jacksonville Center
Thu 09:25:51 PM 29.3875 -82.6875 354° North 421 484 34,000 252 Climbing Jacksonville Center
Thu 09:26:51 PM 29.5189 -82.6944 357° North 421 484 34,000 347 Level Jacksonville Center
Thu 09:27:52 PM 29.6381 -82.6942 360° North 427 491 34,700 1,200 Climbing Jacksonville Center
Thu 09:28:51 PM 29.7569 -82.6939 360° North 416 479 36,400 1,563 Climbing Jacksonville Center
Thu 09:29:51 PM 29.8697 -82.6939 360° North 410 472 37,800 1,289 Climbing Jacksonville Center
Thu 09:30:52 PM 29.9825 -82.6911 North 400 460 39,000 595 Climbing Jacksonville Center
Thu 09:31:52 PM 30.0972 -82.6861 North 400 460 39,000  Level Jacksonville Center
Thu 09:32:51 PM 30.2078 -82.6858 360° North 400 460 39,000  Level Jacksonville Center
Thu 09:33:52 PM 30.3186 -82.6856 360° North 400 460 39,000  Level Jacksonville Center
Thu 09:34:51 PM 30.4292 -82.6853 360° North 400 460 39,000  Level Jacksonville Center
Thu 09:35:52 PM 30.5439 -82.6683 North 400 460 39,000  Level Jacksonville Center
Thu 09:36:51 PM 30.6544 -82.6172 22° Northeast 412 474 39,000  Level Jacksonville Center
Thu 09:37:51 PM 30.7650 -82.5639 23° Northeast 417 480 39,000  Level Jacksonville Center
Thu 09:38:51 PM 30.8756 -82.5103 23° Northeast 423 487 39,000  Level Jacksonville Center
Thu 09:39:51 PM 30.9881 -82.4517 24° Northeast 433 498 39,000  Level Jacksonville Center
Thu 09:40:52 PM 31.0778 -82.4097 22° Northeast 433 498 39,000  Level Jacksonville Center
Thu 09:41:51 PM 31.1967 -82.3511 23° Northeast 428 493 39,000  Level Jacksonville Center
Thu 09:42:52 PM 31.3092 -82.2992 22° Northeast 428 493 39,000  Level Jacksonville Center
Thu 09:43:51 PM 31.4175 -82.2475 22° Northeast 428 493 39,000  Level Jacksonville Center
Thu 09:44:52 PM 31.5258 -82.1906 24° Northeast 428 493 39,000  Level Jacksonville Center
Thu 09:45:52 PM 31.6339 -82.1361 23° Northeast 428 493 39,000  Level Jacksonville Center
Thu 09:46:51 PM 31.7567 -82.0764 22° Northeast 423 487 39,000  Level Jacksonville Center
Thu 09:47:52 PM 31.8692 -82.0217 22° Northeast 423 487 39,000  Level Jacksonville Center
Thu 09:48:52 PM 31.9669 -81.9717 23° Northeast 423 487 39,000  Level Jacksonville Center
Thu 09:49:51 PM 32.0875 -81.9142 22° Northeast 423 487 39,000  Level Jacksonville Center
Thu 09:50:52 PM 32.1875 -81.8689 21° North 423 487 39,000  Level Jacksonville Center
Thu 09:51:52 PM 32.3081 -81.8111 22° Northeast 423 487 39,000  Level Jacksonville Center
Thu 09:52:52 PM 32.4183 -81.7581 22° Northeast 428 493 39,000  Level Jacksonville Center
Thu 09:53:52 PM 32.5181 -81.7125 21° North 428 493 39,000  Level Jacksonville Center
Thu 09:54:51 PM 32.6386 -81.6517 23° Northeast 428 493 39,000  Level Jacksonville Center
Thu 09:55:51 PM 32.7383 -81.6033 22° Northeast 428 493 39,000  Level Jacksonville Center
Thu 09:56:51 PM 32.8483 -81.5500 22° Northeast 428 493 39,000  Level Jacksonville Center
Thu 09:57:51 PM 32.9583 -81.4986 21° North 428 493 39,000  Level Jacksonville Center
Thu 09:58:51 PM 33.0683 -81.4475 21° North 428 493 39,000  Level Jacksonville Center
Thu 09:59:51 PM 33.1783 -81.3911 23° Northeast 428 493 39,000  Level Jacksonville Center
Thu 10:00:51 PM 33.2883 -81.3369 22° Northeast 428 493 39,000  Level Jacksonville Center
Thu 10:01:52 PM 33.3983 -81.2828 22° Northeast 433 498 39,000  Level Jacksonville Center
Thu 10:02:51 PM 33.5083 -81.2286 22° Northeast 433 498 39,000  Level Jacksonville Center
Thu 10:03:51 PM 33.6244 -81.1739 21° North 433 498 39,000  Level Jacksonville Center
Thu 10:04:52 PM 33.7364 -81.1169 23° Northeast 433 498 39,000  Level Jacksonville Center
Thu 10:05:51 PM 33.8583 -81.0469 25° Northeast 433 498 39,000  Level Jacksonville Center
Thu 10:06:51 PM 33.9489 -80.9600 39° Northeast 441 507 39,000  Level Jacksonville Center
Thu 10:07:51 PM 34.0472 -80.8500 43° Northeast 461 531 39,000  Level Jacksonville Center
Thu 10:08:52 PM 34.1436 -80.7472 41° Northeast 466 536 39,000  Level Jacksonville Center
Thu 10:09:51 PM 34.2439 -80.6344 43° Northeast 471 542 39,000  Level Jacksonville Center
Thu 10:10:52 PM 34.3400 -80.5261 43° Northeast 471 542 39,000  Level Jacksonville Center
Thu 10:11:51 PM 34.4381 -80.4203 42° Northeast 471 542 39,000  Level Jacksonville Center
Thu 10:12:51 PM 34.5381 -80.3092 42° Northeast 476 548 39,000  Level Jacksonville Center
Thu 10:14:51 PM 34.7428 -80.0758 43° Northeast 471 542 39,000  Level Washington Center
Thu 10:15:50 PM 34.8431 -79.9647 42° Northeast 482 555 39,000  Level Washington Center
Thu 10:16:50 PM 34.9408 -79.8536 43° Northeast 482 555 39,000  Level Washington Center
Thu 10:17:50 PM 35.0408 -79.7447 42° Northeast 482 555 39,000  Level Washington Center
Thu 10:18:50 PM 35.1383 -79.6328 43° Northeast 487 560 39,000  Level Washington Center
Thu 10:19:50 PM 35.2361 -79.5208 43° Northeast 482 555 39,000  Level Washington Center
Thu 10:20:50 PM 35.3358 -79.4061 43° Northeast 482 555 39,000  Level Washington Center
Thu 10:21:50 PM 35.4267 -79.3058 42° Northeast 482 555 39,000  Level Washington Center
Thu 10:22:50 PM 35.5239 -79.1931 43° Northeast 482 555 39,000  Level Washington Center
Thu 10:23:50 PM 35.6317 -79.0753 42° Northeast 482 555 39,000  Level Washington Center
Thu 10:24:50 PM 35.7389 -78.9800 36° Northeast 477 549 39,000  Level Washington Center
Thu 10:25:50 PM 35.8458 -78.8822 37° Northeast 477 549 39,000  Level Washington Center
Thu 10:26:50 PM 35.9506 -78.7889 36° Northeast 467 537 39,000  Level Washington Center
Thu 10:27:50 PM 36.0553 -78.6931 36° Northeast 467 537 39,000  Level Washington Center
Thu 10:28:50 PM 36.1622 -78.5944 37° Northeast 467 537 39,000  Level Washington Center
Thu 10:29:50 PM 36.2542 -78.5053 38° Northeast 467 537 39,000  Level Washington Center
Thu 10:30:50 PM 36.3650 -78.4086 35° Northeast 472 543 39,000  Level Washington Center
Thu 10:31:50 PM 36.4717 -78.3067 38° Northeast 472 543 39,000  Level Washington Center
Thu 10:32:50 PM 36.5783 -78.2069 37° Northeast 472 543 39,000  Level Washington Center
Thu 10:33:50 PM 36.6953 -78.0969 37° Northeast 472 543 39,000  Level Washington Center
Thu 10:34:50 PM 36.7997 -77.9964 38° Northeast 472 543 39,000  Level Washington Center
Thu 10:35:50 PM 36.8972 -77.9058 37° Northeast 472 543 39,000  Level Washington Center
Thu 10:36:50 PM 37.0058 -77.8025 37° Northeast 472 543 39,000  Level Washington Center
Thu 10:37:50 PM 37.1097 -77.7039 37° Northeast 472 543 39,000  Level Washington Center
Thu 10:38:50 PM 37.2158 -77.6025 37° Northeast 472 543 39,000  Level Washington Center
Thu 10:39:50 PM 37.3239 -77.5008 37° Northeast 472 543 39,000  Level Washington Center
Thu 10:40:50 PM 37.4297 -77.3989 37° Northeast 472 543 39,000  Level Washington Center
Thu 10:41:50 PM 37.5458 -77.2892 37° Northeast 467 537 39,000  Level Washington Center
Thu 10:42:50 PM 37.6539 -77.1839 38° Northeast 467 537 39,000  Level Washington Center
Thu 10:43:51 PM 37.7614 -77.0811 37° Northeast 472 543 39,000  Level Washington Center
Thu 10:44:50 PM 37.8669 -76.9753 38° Northeast 472 543 39,000  Level Washington Center
Thu 10:45:50 PM 37.9744 -76.8719 37° Northeast 477 549 39,000  Level Washington Center
Thu 10:46:50 PM 38.0819 -76.7631 39° Northeast 477 549 39,000  Level Washington Center
Thu 10:47:50 PM 38.1914 -76.6592 37° Northeast 482 555 39,000  Level Washington Center
Thu 10:48:50 PM 38.2986 -76.5494 39° Northeast 487 560 39,000  Level Washington Center
Thu 10:49:50 PM 38.3953 -76.4581 37° Northeast 487 560 39,000  Level Washington Center
Thu 10:50:50 PM 38.5022 -76.3478 39° Northeast 492 566 39,000  Level Washington Center
Thu 10:51:50 PM 38.6072 -76.2425 38° Northeast 492 566 39,000  Level Washington Center
Thu 10:52:50 PM 38.7286 -76.1239 37° Northeast 498 573 39,000  Level Washington Center
Thu 10:53:50 PM 38.8375 -76.0153 38° Northeast 498 573 39,000  Level Washington Center
Thu 10:54:50 PM 38.9442 -75.9092 38° Northeast 493 567 39,000  Level Washington Center
Thu 10:55:50 PM 39.0528 -75.7975 39° Northeast 493 567 39,000  Level Washington Center
Thu 10:56:50 PM 39.1383 -75.7119 38° Northeast 493 567 39,000  Level Washington Center
Thu 10:57:50 PM 39.2675 -75.5808 38° Northeast 493 567 39,000  Level Washington Center
Thu 10:58:50 PM 39.3717 -75.4708 39° Northeast 493 567 39,000  Level Washington Center
Thu 10:59:50 PM 39.4675 -75.3739 38° Northeast 493 567 39,000  Level Washington Center
Thu 11:00:50 PM 39.5736 -75.2631 39° Northeast 493 567 39,000  Level Washington Center
Thu 11:01:50 PM 39.6794 -75.1575 37° Northeast 493 567 39,000  Level Washington Center
Thu 11:02:40 PM 39.7667 -75.0594 41° Northeast 496 571 39,000  Level New York Center
Thu 11:03:40 PM 39.8728 -74.9497 38° Northeast 496 571 39,000  Level New York Center
Thu 11:04:41 PM 39.9753 -74.8233 43° Northeast 490 564 39,000  Level New York Center
Thu 11:05:40 PM 40.0758 -74.6800 47° Northeast 490 564 39,000  Level New York Center
Thu 11:06:41 PM 40.1678 -74.5492 47° Northeast 490 564 39,000  Level New York Center
Thu 11:07:41 PM 40.2675 -74.4269 43° Northeast 485 558 39,000  Level New York Center
Thu 11:08:40 PM 40.3708 -74.3150 40° Northeast 479 551 39,000  Level New York Center
Thu 11:09:40 PM 40.4764 -74.2006 39° Northeast 479 551 39,000  Level New York Center
Thu 11:11:28 PM 40.6597 -74.0106 38° Northeast 503 579 39,000  Level Boston Center
Thu 11:12:28 PM 40.7675 -73.8953 39° Northeast 503 579 39,000  Level Boston Center
Thu 11:13:28 PM 40.8872 -73.8156 27° Northeast 491 565 39,000  Level Boston Center
Thu 11:14:28 PM 41.0172 -73.7578 19° North 486 559 39,000 -100 Level Boston Center
Thu 11:15:28 PM 41.1506 -73.7578 360° North 470 541 38,800 -1,050 Descending Boston Center
Thu 11:16:28 PM 41.2819 -73.7578 360° North 470 541 36,900 -1,950 Descending Boston Center
Thu 11:17:28 PM 41.4111 -73.7631 358° North 465 535 34,900 -2,000 Descending Boston Center
Thu 11:18:28 PM 41.5444 -73.7658 359° North 465 535 32,900 -1,700 Descending Boston Center
Thu 11:19:28 PM 41.6800 -73.7492 North 472 543 31,500 -1,150 Descending Boston Center
Thu 11:20:28 PM 41.7878 -73.6317 39° Northeast 471 542 30,600 -950 Descending Boston Center
Thu 11:21:28 PM 41.8889 -73.4969 45° Northeast 485 558 29,600 -800 Descending Boston Center
Thu 11:22:28 PM 41.9922 -73.3647 44° Northeast 497 572 29,000 -300 Descending Boston Center
Thu 11:23:28 PM 42.0911 -73.2347 44° Northeast 497 572 29,000 -50 Level Boston Center
Thu 11:24:28 PM 42.1922 -73.1014 44° Northeast 502 578 28,900 -1,700 Descending Boston Center
Thu 11:25:28 PM 42.2908 -72.9706 44° Northeast 496 571 25,600 -3,250 Descending Boston Center
Thu 11:26:28 PM 42.3978 -72.8225 46° Northeast 491 565 22,400 -3,050 Descending Boston Center
Thu 11:27:28 PM 42.4856 -72.7019 45° Northeast 468 539 19,500 -2,364 Descending Boston Center
Thu 11:28:40 PM 42.5669 -72.6008 42° Northeast 450 518 17,200 -2,182 Descending Boston Center
Thu 11:29:40 PM 42.6672 -72.4683 44° Northeast 428 493 14,700 -2,300 Descending Boston Center
Thu 11:30:40 PM 42.7422 -72.3667 45° Northeast 396 456 12,600 -2,200 Descending Boston Center
Thu 11:31:40 PM 42.7919 -72.2533 59° Northeast 361 415 10,300 -1,450 Descending Boston Center
Thu 11:32:40 PM 42.8042 -72.1289 82° East 311 358 9,700 -850 Descending Boston Center
Thu 11:33:40 PM 42.8144 -72.0297 82° East 297 342 8,600 -1,500 Descending Boston Center
Thu 11:34:40 PM 42.8244 -71.9108 83° East 284 327 6,700 -1,600 Descending Boston Center
Thu 11:35:40 PM 42.8322 -71.8200 83° East 284 327 5,400 -1,600 Descending Boston Center
Thu 11:36:40 PM 42.8400 -71.7094 84° East 269 310 3,500 -1,550 Descending Boston Center
Thu 11:37:40 PM 42.8497 -71.6217 81° East 269 310 2,300 -700 Descending Boston Center
Thu 11:38:40 PM 42.8656 -71.5308 77° East 233 268 2,100 -550 Descending Boston Center
Thu 11:39:40 PM 42.8903 -71.4964 46° Northeast 158 182 1,200 -800 Descending Boston Center
Thu 11:40:40 PM 42.9194 -71.4619 41° Northeast 121 139 500 -400 Descending Boston Center
Thu 11:41:40 PM 42.9419 -71.4333 43° Northeast 121 139 400 4,250 Descending Boston Center
Thu 11:42:40 PM 42.9689 -71.4044 38° Northeast 121 139 9,000 4,300 Climbing Boston Center
Thu 11:43:40 PM 42.9936 -71.3756 41° Northeast 121 139 9,000  Level Boston Center
Thu 11:44:40 PM 43.0203 -71.3467 38° Northeast 121 139 9,000  Level Boston Center
Thu 11:45:40 PM 43.0244 -71.3411 44° Northeast 121 139 9,000  Level Boston Center
Thu 11:46:40 PM 43.0244 -71.3411 350° North 121 139 9,000  Level Boston Center
Thu 11:48:00 PM 42.9328 -71.4358 216° Southwest  Level Estimated
Thu 11:55:00 PM 42.9328 -71.4358 216° Southwest  Level Estimated
Thu 11:56:00 PM 42.9328 -71.4358 216° Southwest  Level Estimated
Thu 11:57:00 PM 42.9328 -71.4358 216° Southwest  Level Estimated
Thu 11:58:00 PM 42.9328 -71.4358 216° Southwest  Level Estimated
Thu 11:59:00 PM 42.9328 -71.4358 216° Southwest  Level Estimated

Login

Don't have an account? Register now (free) for customized features, flight alerts, and more!